createdAt,value
2023-04-18T00:00:43.185Z,31.50
2023-04-18T00:03:10.461Z,29.00
2023-04-18T00:05:37.688Z,26.00
2023-04-18T00:08:04.586Z,29.25
2023-04-18T00:10:32.838Z,30.00
2023-04-18T00:12:59.667Z,30.50
2023-04-18T00:15:26.619Z,28.75
2023-04-18T00:17:53.492Z,28.00
2023-04-18T00:20:20.559Z,30.00
2023-04-18T00:22:47.430Z,30.75
2023-04-18T00:25:14.896Z,30.00
2023-04-18T00:27:41.927Z,30.00
2023-04-18T00:30:09.278Z,31.00
2023-04-18T00:32:37.984Z,30.75
2023-04-18T00:35:05.805Z,30.00
2023-04-18T00:37:32.711Z,30.00
2023-04-18T00:39:59.719Z,25.75
2023-04-18T00:42:27.459Z,27.00
2023-04-18T00:44:54.336Z,29.75
2023-04-18T00:47:21.284Z,32.25
2023-04-18T00:49:49.442Z,29.50
2023-04-18T00:52:18.138Z,27.75
2023-04-18T00:54:45.560Z,28.00
2023-04-18T00:57:13.340Z,27.50
2023-04-18T00:59:40.952Z,27.00
2023-04-18T01:02:08.158Z,27.00
2023-04-18T01:04:35.148Z,26.50
2023-04-18T01:07:02.849Z,27.00
2023-04-18T01:09:30.107Z,26.50
2023-04-18T01:11:57.107Z,30.00
2023-04-18T01:14:24.148Z,27.00
2023-04-18T01:16:51.000Z,27.00
2023-04-18T01:19:19.438Z,26.25
2023-04-18T01:21:46.423Z,24.25
2023-04-18T01:24:15.534Z,23.50
2023-04-18T01:26:44.971Z,25.00
2023-04-18T01:29:12.234Z,25.00
2023-04-18T01:31:40.585Z,26.00
2023-04-18T01:34:08.181Z,25.50
2023-04-18T01:36:36.209Z,26.00
2023-04-18T01:39:03.349Z,29.00
2023-04-18T01:41:30.384Z,29.00
2023-04-18T01:43:57.199Z,28.00
2023-04-18T01:46:24.269Z,24.25
2023-04-18T01:48:51.214Z,26.25
2023-04-18T01:51:20.399Z,26.00
2023-04-18T01:53:47.498Z,28.25
2023-04-18T01:56:14.518Z,25.75
2023-04-18T01:58:41.476Z,26.00
2023-04-18T02:01:08.711Z,27.00
2023-04-18T02:03:35.864Z,27.75
2023-04-18T02:06:06.049Z,25.75
2023-04-18T02:08:33.036Z,27.00
2023-04-18T02:10:59.941Z,27.25
2023-04-18T02:13:27.125Z,28.25
2023-04-18T02:15:53.958Z,28.00
2023-04-18T02:18:21.070Z,28.00
2023-04-18T02:20:47.923Z,28.25
2023-04-18T02:23:14.787Z,24.25
2023-04-18T02:25:41.701Z,26.50
2023-04-18T02:28:09.563Z,27.00
2023-04-18T02:30:36.362Z,24.00
2023-04-18T02:33:03.300Z,24.25
2023-04-18T02:35:30.526Z,25.50
2023-04-18T02:37:57.376Z,25.50
2023-04-18T02:40:24.366Z,23.50
2023-04-18T02:42:51.295Z,25.25
2023-04-18T02:45:18.354Z,24.00
2023-04-18T02:47:54.277Z,23.25
2023-04-18T02:50:23.051Z,25.50
2023-04-18T02:52:50.796Z,26.00
2023-04-18T02:55:19.806Z,29.00
2023-04-18T02:57:46.821Z,28.00
2023-04-18T03:00:34.583Z,28.50
2023-04-18T03:03:20.247Z,24.50
2023-04-18T03:05:57.867Z,26.50
2023-04-18T03:08:25.257Z,28.00
2023-04-18T03:10:52.234Z,30.00
2023-04-18T03:13:22.291Z,30.00
2023-04-18T03:15:49.371Z,27.00
2023-04-18T03:18:16.686Z,27.50
2023-04-18T03:20:43.843Z,28.00
2023-04-18T03:23:10.844Z,31.00
2023-04-18T03:25:37.963Z,30.50
2023-04-18T03:28:05.500Z,32.50
2023-04-18T03:30:33.909Z,32.00
2023-04-18T03:33:02.311Z,33.00
2023-04-18T03:35:29.330Z,34.00
2023-04-18T03:37:56.529Z,34.00
2023-04-18T03:40:32.702Z,33.50
2023-04-18T03:43:06.295Z,34.75
2023-04-18T03:45:33.680Z,35.00
2023-04-18T03:48:00.559Z,34.50
2023-04-18T03:50:28.539Z,34.50
2023-04-18T03:52:57.134Z,35.00
2023-04-18T03:55:25.256Z,34.50
2023-04-18T03:57:52.351Z,34.50
2023-04-18T04:00:26.406Z,33.50
2023-04-18T04:03:00.584Z,33.25
2023-04-18T04:05:28.376Z,33.00
2023-04-18T04:08:13.916Z,34.25
2023-04-18T04:10:41.222Z,36.00
2023-04-18T04:13:08.103Z,35.00
2023-04-18T04:15:38.901Z,33.50
2023-04-18T04:18:08.071Z,34.50
2023-04-18T04:20:37.978Z,35.00
2023-04-18T04:23:12.793Z,35.00
2023-04-18T04:25:41.201Z,33.50
2023-04-18T04:28:17.073Z,32.00
2023-04-18T04:30:53.287Z,32.50
2023-04-18T04:33:21.483Z,33.00
2023-04-18T04:35:48.966Z,33.00
2023-04-18T04:38:16.758Z,32.00
2023-04-18T04:40:47.407Z,32.50
2023-04-18T04:43:14.513Z,31.50
2023-04-18T04:45:43.902Z,32.75
2023-04-18T04:48:11.390Z,32.00
2023-04-18T04:50:40.752Z,33.00
2023-04-18T04:53:10.118Z,32.00
2023-04-18T04:55:37.295Z,32.00
2023-04-18T04:58:04.911Z,32.50
2023-04-18T05:00:52.152Z,32.75
2023-04-18T05:03:20.109Z,31.50
2023-04-18T05:05:47.497Z,32.50
2023-04-18T05:08:14.461Z,32.00
2023-04-18T05:10:41.358Z,32.00
2023-04-18T05:13:08.391Z,30.50
2023-04-18T05:15:35.371Z,31.00
2023-04-18T05:18:02.416Z,31.50
2023-04-18T05:20:29.390Z,31.50
2023-04-18T05:22:56.317Z,32.00
2023-04-18T05:25:23.225Z,31.00
2023-04-18T05:28:08.937Z,31.25
2023-04-18T05:30:35.939Z,32.00
2023-04-18T05:33:02.945Z,31.25
2023-04-18T05:35:30.333Z,32.00
2023-04-18T05:37:58.344Z,33.00
2023-04-18T05:40:26.155Z,31.00
2023-04-18T05:42:53.103Z,33.00
2023-04-18T05:45:20.174Z,31.00
2023-04-18T05:47:47.005Z,32.00
2023-04-18T05:50:13.914Z,30.50
2023-04-18T05:52:59.281Z,32.00
2023-04-18T05:55:45.059Z,32.00
2023-04-18T05:58:12.248Z,32.00
2023-04-18T06:00:39.095Z,31.00
2023-04-18T06:03:08.515Z,30.50
2023-04-18T06:05:37.173Z,31.50
2023-04-18T06:08:04.190Z,31.75
2023-04-18T06:10:31.181Z,33.00
2023-04-18T06:12:58.091Z,33.00
2023-04-18T06:15:25.206Z,32.50
2023-04-18T06:17:52.075Z,32.00
2023-04-18T06:20:19.150Z,32.00
2023-04-18T06:22:46.029Z,30.50
2023-04-18T06:25:12.989Z,31.00
2023-04-18T06:27:39.945Z,30.50
2023-04-18T06:30:07.637Z,31.00
2023-04-18T06:32:34.708Z,32.00
2023-04-18T06:35:01.670Z,32.00
2023-04-18T06:37:29.040Z,33.00
2023-04-18T06:39:56.015Z,32.25
2023-04-18T06:42:23.040Z,31.00
2023-04-18T06:44:50.517Z,33.00
2023-04-18T06:47:17.516Z,32.50
2023-04-18T06:49:44.574Z,33.00
2023-04-18T06:52:11.379Z,31.50
2023-04-18T06:54:38.361Z,33.00
2023-04-18T06:57:05.247Z,32.00
2023-04-18T06:59:32.198Z,32.50
2023-04-18T07:01:59.351Z,32.00
2023-04-18T07:04:26.407Z,32.00
2023-04-18T07:06:53.343Z,33.00
2023-04-18T07:09:20.392Z,32.50
2023-04-18T07:11:47.307Z,34.00
2023-04-18T07:14:14.687Z,34.00
2023-04-18T07:16:41.841Z,34.00
2023-04-18T07:19:08.903Z,33.50
2023-04-18T07:21:35.753Z,33.50
2023-04-18T07:24:02.670Z,34.00
2023-04-18T07:26:29.534Z,33.00
2023-04-18T07:28:56.474Z,33.00
2023-04-18T07:31:23.674Z,33.00
2023-04-18T07:33:50.716Z,33.00
2023-04-18T07:36:18.000Z,34.00
2023-04-18T07:38:45.061Z,34.00
2023-04-18T07:41:11.925Z,33.25
2023-04-18T07:43:39.065Z,34.25
2023-04-18T07:46:06.580Z,35.00
2023-04-18T07:48:33.766Z,33.75
2023-04-18T07:51:00.589Z,34.00
2023-04-18T07:53:27.522Z,33.00
2023-04-18T07:55:54.438Z,34.00
2023-04-18T07:58:21.582Z,33.75
2023-04-18T08:00:48.438Z,34.00
2023-04-18T08:03:15.623Z,33.00
2023-04-18T08:05:43.363Z,35.00
2023-04-18T08:08:12.259Z,34.00
2023-04-18T08:10:39.141Z,34.00
2023-04-18T08:13:07.297Z,34.50
2023-04-18T08:15:34.376Z,34.00
2023-04-18T08:18:01.761Z,32.75
2023-04-18T08:20:28.784Z,33.00
2023-04-18T08:25:25.498Z,33.00
2023-04-18T08:27:52.376Z,33.00
2023-04-18T08:30:19.351Z,32.50
2023-04-18T08:32:46.298Z,34.00
2023-04-18T08:35:13.357Z,34.00
2023-04-18T08:37:40.364Z,34.00
2023-04-18T08:40:07.860Z,33.50
2023-04-18T08:42:36.247Z,34.00
2023-04-18T08:45:03.341Z,34.00
2023-04-18T08:47:30.671Z,33.50
2023-04-18T08:49:58.128Z,34.00
2023-04-18T08:52:26.633Z,33.25
2023-04-18T08:54:53.470Z,34.50
2023-04-18T08:57:20.383Z,33.50
2023-04-18T08:59:49.006Z,33.00
2023-04-18T09:02:17.792Z,33.50
2023-04-18T09:04:46.409Z,34.00
2023-04-18T09:07:16.232Z,33.00
2023-04-18T09:09:53.759Z,34.00
2023-04-18T09:12:22.815Z,33.50
2023-04-18T09:14:51.345Z,32.50
2023-04-18T09:17:36.543Z,33.50
2023-04-18T09:20:05.567Z,34.75
2023-04-18T09:22:50.894Z,33.00
2023-04-18T09:25:29.000Z,34.00
2023-04-18T09:27:56.841Z,33.00
2023-04-18T09:30:34.786Z,34.00
2023-04-18T09:33:04.729Z,32.00
2023-04-18T09:35:31.680Z,34.75
2023-04-18T09:37:58.560Z,34.00
2023-04-18T09:40:25.688Z,34.00
2023-04-18T09:42:53.499Z,34.50
2023-04-18T09:45:20.832Z,34.00
2023-04-18T09:47:47.794Z,34.00
2023-04-18T09:50:14.764Z,33.00
2023-04-18T09:52:43.623Z,34.00
2023-04-18T09:55:15.070Z,32.50
2023-04-18T09:57:45.713Z,33.25
2023-04-18T10:00:27.220Z,34.00
2023-04-18T10:03:17.937Z,32.50
2023-04-18T10:05:45.808Z,32.50
2023-04-18T10:08:14.070Z,34.00
2023-04-18T10:10:41.197Z,33.50
2023-04-18T10:13:09.396Z,33.50
2023-04-18T10:15:39.076Z,33.50
2023-04-18T10:18:16.822Z,33.50
2023-04-18T10:20:43.920Z,32.50
2023-04-18T10:23:32.361Z,33.50
2023-04-18T10:25:59.458Z,33.00
2023-04-18T10:28:27.023Z,32.00
2023-04-18T10:31:03.879Z,32.75
2023-04-18T10:33:40.990Z,33.00
2023-04-18T10:36:09.488Z,31.50
2023-04-18T10:38:37.728Z,32.50
2023-04-18T10:41:27.151Z,31.50
2023-04-18T10:44:07.590Z,33.00
2023-04-18T10:46:45.045Z,34.00
2023-04-18T10:49:31.128Z,33.00
2023-04-18T10:52:06.062Z,33.00
2023-04-18T10:54:48.346Z,33.50
2023-04-18T10:57:17.699Z,31.75
2023-04-18T10:59:49.229Z,33.00
2023-04-18T11:02:23.890Z,33.50
2023-04-18T11:04:55.129Z,32.50
2023-04-18T11:07:46.737Z,31.50
2023-04-18T11:10:17.555Z,32.00
2023-04-18T11:12:45.238Z,33.50
2023-04-18T11:15:17.943Z,33.50
2023-04-18T11:17:45.023Z,34.25
2023-04-18T11:20:14.797Z,32.50
2023-04-18T11:22:49.924Z,32.50
2023-04-18T11:25:18.255Z,32.00
2023-04-18T11:27:47.782Z,34.00
2023-04-18T11:30:15.767Z,32.50
2023-04-18T11:32:42.679Z,31.50
2023-04-18T11:35:11.743Z,34.00
2023-04-18T11:37:39.443Z,34.00
2023-04-18T11:40:09.431Z,34.00
2023-04-18T11:42:38.499Z,33.50
2023-04-18T11:45:13.638Z,33.00
2023-04-18T11:47:42.172Z,34.00
2023-04-18T11:50:11.350Z,32.50
2023-04-18T11:52:41.181Z,34.00
2023-04-18T11:55:16.823Z,32.50
2023-04-18T11:57:59.612Z,33.00
2023-04-18T12:00:33.903Z,34.00
2023-04-18T12:03:02.462Z,34.00
2023-04-18T12:05:31.936Z,33.50
2023-04-18T12:08:19.132Z,33.00
2023-04-18T12:10:51.030Z,32.00
2023-04-18T12:13:19.019Z,34.00
2023-04-18T12:15:46.935Z,34.00
2023-04-18T12:18:17.618Z,33.50
2023-04-18T12:20:51.835Z,34.00
2023-04-18T12:23:38.349Z,33.00
2023-04-18T12:26:12.869Z,34.00
2023-04-18T12:28:39.951Z,34.00
2023-04-18T12:31:06.805Z,34.00
2023-04-18T12:33:34.393Z,34.00
2023-04-18T12:36:01.287Z,34.00
2023-04-18T12:38:28.437Z,32.50
2023-04-18T12:40:55.402Z,34.00
2023-04-18T12:43:22.398Z,34.00
2023-04-18T12:45:49.762Z,34.00
2023-04-18T12:48:16.748Z,34.00
2023-04-18T12:50:43.597Z,34.00
2023-04-18T12:53:10.522Z,33.50
2023-04-18T12:55:37.424Z,33.00
2023-04-18T12:58:04.387Z,32.50
2023-04-18T13:00:32.334Z,34.00
2023-04-18T13:03:18.279Z,32.00
2023-04-18T13:06:04.020Z,33.00
2023-04-18T13:08:31.032Z,34.00
2023-04-18T13:10:58.304Z,33.50
2023-04-18T13:13:25.284Z,36.00
2023-04-18T13:15:52.425Z,34.00
2023-04-18T13:18:38.024Z,33.50
2023-04-18T13:21:23.608Z,33.00
2023-04-18T13:24:12.022Z,34.00
2023-04-18T13:26:38.955Z,32.50
2023-04-18T13:29:07.233Z,34.00
2023-04-18T13:31:34.267Z,33.50
2023-04-18T13:34:01.168Z,32.50
2023-04-18T13:36:28.149Z,32.50
2023-04-18T13:38:55.644Z,33.00
2023-04-18T13:41:22.637Z,33.00
2023-04-18T13:43:51.924Z,34.00
2023-04-18T13:46:37.750Z,34.25
2023-04-18T13:49:04.679Z,34.50
2023-04-18T13:51:31.568Z,34.00
2023-04-18T13:54:01.943Z,34.00
2023-04-18T13:56:30.947Z,33.00
2023-04-18T13:58:57.828Z,33.00
2023-04-18T14:01:24.759Z,33.00
2023-04-18T14:04:10.443Z,33.25
2023-04-18T14:06:56.211Z,31.50
2023-04-18T14:09:24.393Z,32.00
2023-04-18T14:11:51.383Z,34.00
2023-04-18T14:14:18.445Z,33.00
2023-04-18T14:16:45.613Z,32.50
2023-04-18T14:19:14.109Z,34.00
2023-04-18T14:21:59.450Z,34.00
2023-04-18T14:24:26.405Z,34.00
2023-04-18T14:26:55.782Z,33.00
2023-04-18T14:29:22.810Z,32.50
2023-04-18T14:31:49.688Z,33.00
2023-04-18T14:34:16.753Z,31.50
2023-04-18T14:36:43.671Z,32.25
2023-04-18T14:39:10.606Z,32.00
2023-04-18T14:41:37.538Z,33.00
2023-04-18T14:44:04.941Z,31.50
2023-04-18T14:46:31.778Z,32.25
2023-04-18T14:48:59.120Z,32.00
2023-04-18T14:51:26.011Z,31.50
2023-04-18T14:54:11.299Z,31.00
2023-04-18T14:56:41.141Z,30.75
2023-04-18T14:59:29.267Z,30.50
2023-04-18T15:01:56.518Z,30.50
2023-04-18T15:04:23.755Z,31.25
2023-04-18T15:06:53.484Z,41.00
2023-04-18T15:09:20.514Z,36.25
2023-04-18T15:11:47.341Z,33.50
2023-04-18T15:14:14.391Z,33.00
2023-04-18T15:16:41.345Z,33.00
2023-04-18T15:19:08.292Z,31.00
2023-04-18T15:21:35.112Z,31.50
2023-04-18T15:24:02.053Z,31.00
2023-04-18T15:26:30.042Z,32.25
2023-04-18T15:28:57.866Z,32.00
2023-04-18T15:31:24.884Z,30.50
2023-04-18T15:33:51.898Z,32.25
2023-04-18T15:36:20.531Z,32.75
2023-04-18T15:38:47.492Z,30.00
2023-04-18T15:41:14.536Z,31.50
2023-04-18T15:43:43.992Z,31.50
2023-04-18T15:46:29.660Z,32.00
2023-04-18T15:48:56.801Z,29.50
2023-04-18T15:51:27.424Z,31.00
2023-04-18T15:53:55.497Z,29.50
2023-04-18T15:56:25.143Z,30.50
2023-04-18T15:58:52.184Z,30.75
2023-04-18T16:01:19.381Z,32.50
2023-04-18T16:03:48.457Z,31.50
2023-04-18T16:06:15.712Z,32.00
2023-04-18T16:08:45.351Z,31.00
2023-04-18T16:11:12.588Z,31.00
2023-04-18T16:13:39.554Z,31.00
2023-04-18T16:16:06.739Z,30.50
2023-04-18T16:18:36.365Z,30.50
2023-04-18T16:21:03.418Z,32.50
2023-04-18T16:23:31.737Z,31.50
2023-04-18T16:25:58.665Z,31.50
2023-04-18T16:28:25.665Z,31.50
2023-04-18T16:30:54.803Z,29.50
2023-04-18T16:33:22.610Z,32.00
2023-04-18T16:35:49.633Z,31.00
2023-04-18T16:38:21.221Z,30.00
2023-04-18T16:40:48.224Z,31.25
2023-04-18T16:43:15.040Z,32.75
2023-04-18T16:45:41.998Z,31.00
2023-04-18T16:48:11.170Z,30.50
2023-04-18T16:50:41.393Z,31.50
2023-04-18T16:53:08.278Z,32.50
2023-04-18T16:55:35.372Z,33.00
2023-04-18T16:58:02.350Z,31.50
2023-04-18T17:00:29.505Z,31.50
2023-04-18T17:02:56.441Z,32.50
2023-04-18T17:05:23.393Z,32.00
2023-04-18T17:07:52.867Z,31.50
2023-04-18T17:10:19.865Z,40.25
2023-04-18T17:12:50.083Z,43.50
2023-04-18T17:15:20.856Z,36.75
2023-04-18T17:17:48.103Z,36.00
2023-04-18T17:20:18.710Z,35.00
2023-04-18T17:22:45.637Z,35.00
2023-04-18T17:25:30.965Z,34.00
2023-04-18T17:27:58.182Z,32.50
2023-04-18T17:30:25.169Z,32.50
2023-04-18T17:32:52.146Z,35.00
2023-04-18T17:35:19.120Z,35.00
2023-04-18T17:37:49.728Z,35.75
2023-04-18T17:40:16.730Z,33.50
2023-04-18T17:42:43.617Z,35.50
2023-04-18T17:45:10.881Z,37.50
2023-04-18T17:47:38.862Z,36.50
2023-04-18T17:50:07.472Z,35.00
2023-04-18T17:52:34.407Z,33.50
2023-04-18T17:55:02.298Z,34.00
2023-04-18T17:57:29.234Z,35.50
2023-04-18T17:59:56.772Z,36.00
2023-04-18T18:02:23.958Z,34.00
2023-04-18T18:04:51.040Z,34.50
2023-04-18T18:07:17.966Z,36.25
2023-04-18T18:09:45.238Z,36.50
2023-04-18T18:12:12.261Z,36.00
2023-04-18T18:14:39.283Z,34.50
2023-04-18T18:17:06.464Z,35.00
2023-04-18T18:19:51.854Z,35.00
2023-04-18T18:22:18.952Z,35.00
2023-04-18T18:25:04.809Z,34.50
2023-04-18T18:27:31.791Z,34.00
2023-04-18T18:30:02.222Z,31.25
2023-04-18T18:32:29.511Z,31.75
2023-04-18T18:34:56.853Z,33.00
2023-04-18T18:37:26.016Z,29.50
2023-04-18T18:39:55.985Z,31.50
2023-04-18T18:42:23.340Z,31.25
2023-04-18T18:44:50.355Z,32.00
2023-04-18T18:47:22.916Z,32.00
2023-04-18T18:49:49.778Z,31.50
2023-04-18T18:52:18.546Z,33.00
2023-04-18T18:54:45.710Z,33.00
2023-04-18T18:57:12.701Z,33.00
2023-04-18T18:59:39.635Z,32.00
2023-04-18T19:02:12.000Z,32.00
2023-04-18T19:04:41.807Z,31.00
2023-04-18T19:07:08.946Z,31.00
2023-04-18T19:09:35.982Z,32.00
2023-04-18T19:12:05.989Z,31.50
2023-04-18T19:14:36.910Z,31.50
2023-04-18T19:17:04.066Z,30.00
2023-04-18T19:19:31.233Z,31.00
2023-04-18T19:21:58.243Z,31.00
2023-04-18T19:24:25.378Z,31.50
2023-04-18T19:26:52.401Z,32.00
2023-04-18T19:29:24.605Z,32.00
2023-04-18T19:31:51.702Z,33.00
2023-04-18T19:34:20.526Z,33.50
2023-04-18T19:36:49.923Z,31.50
2023-04-18T19:39:16.878Z,35.00
2023-04-18T19:41:44.129Z,32.00
2023-04-18T19:44:33.612Z,34.00
2023-04-18T19:47:01.891Z,33.00
2023-04-18T19:49:28.860Z,30.50
2023-04-18T19:51:55.873Z,31.00
2023-04-18T19:54:23.034Z,32.00
2023-04-18T19:57:05.913Z,30.75
2023-04-18T19:59:32.932Z,32.25
2023-04-18T20:02:03.276Z,30.00
2023-04-18T20:04:32.365Z,32.00
2023-04-18T20:07:02.642Z,32.25
2023-04-18T20:09:29.565Z,30.50
2023-04-18T20:11:57.155Z,29.00
2023-04-18T20:15:01.376Z,29.50
2023-04-18T20:17:28.543Z,32.00
2023-04-18T20:19:55.462Z,32.00
2023-04-18T20:22:22.757Z,33.00
2023-04-18T20:24:52.232Z,28.00
2023-04-18T20:27:19.784Z,30.25
2023-04-18T20:29:48.066Z,31.50
2023-04-18T20:32:15.103Z,31.00
2023-04-18T20:35:19.493Z,32.00
2023-04-18T20:38:05.332Z,31.50
2023-04-18T20:40:32.824Z,31.00
2023-04-18T20:42:59.838Z,31.00
2023-04-18T20:45:45.526Z,32.75
2023-04-18T20:48:12.507Z,31.00
2023-04-18T20:50:39.462Z,31.75
2023-04-18T20:53:06.664Z,31.00
2023-04-18T20:55:35.847Z,30.50
2023-04-18T20:58:43.390Z,31.00
2023-04-18T21:01:29.206Z,31.00
2023-04-18T21:04:33.642Z,31.00
2023-04-18T21:07:00.806Z,29.00
2023-04-18T21:09:27.725Z,31.00
2023-04-18T21:11:54.640Z,27.25
2023-04-18T21:14:21.491Z,26.75
2023-04-18T21:17:06.818Z,27.50
2023-04-18T21:19:33.835Z,26.00
2023-04-18T21:22:00.798Z,26.50
2023-04-18T21:24:27.901Z,27.50
2023-04-18T21:27:13.575Z,25.75
2023-04-18T21:29:41.121Z,28.75
2023-04-18T21:32:26.653Z,29.00
2023-04-18T21:35:12.035Z,28.00
2023-04-18T21:37:39.003Z,27.00
2023-04-18T21:40:06.752Z,29.00
2023-04-18T21:42:33.794Z,26.50
2023-04-18T21:45:00.680Z,29.00
2023-04-18T21:47:27.593Z,26.00
2023-04-18T21:50:12.930Z,26.00
2023-04-18T21:52:39.944Z,27.00
2023-04-18T21:55:44.348Z,26.75
2023-04-18T21:58:11.340Z,27.00
2023-04-18T22:00:38.203Z,25.50
2023-04-18T22:03:23.772Z,25.50
2023-04-18T22:05:51.037Z,27.00
2023-04-18T22:08:55.084Z,26.50
2023-04-18T22:11:22.185Z,27.00
2023-04-18T22:13:49.189Z,27.75
2023-04-18T22:16:34.684Z,25.25
2023-04-18T22:19:01.715Z,25.50
2023-04-18T22:21:28.545Z,27.75
2023-04-18T22:23:55.433Z,28.00
2023-04-18T22:26:22.326Z,27.50
2023-04-18T22:28:49.582Z,25.00
2023-04-18T22:31:16.516Z,23.50
2023-04-18T22:33:43.617Z,24.00
2023-04-18T22:36:10.545Z,28.00
2023-04-18T22:38:37.552Z,28.00
2023-04-18T22:41:04.542Z,29.00
2023-04-18T22:43:31.453Z,29.00
2023-04-18T22:45:58.345Z,27.75
2023-04-18T22:48:25.455Z,27.00
2023-04-18T22:50:52.301Z,28.00
2023-04-18T22:53:19.191Z,28.00
2023-04-18T22:55:46.113Z,27.00
2023-04-18T22:58:13.279Z,29.00
2023-04-18T23:00:40.237Z,29.00
2023-04-18T23:03:07.353Z,29.00
2023-04-18T23:05:34.472Z,29.00
2023-04-18T23:08:01.715Z,28.75
2023-04-18T23:10:28.654Z,29.25
2023-04-18T23:12:55.551Z,29.00
2023-04-18T23:15:22.421Z,28.00
2023-04-18T23:17:52.212Z,27.50
2023-04-18T23:20:19.961Z,28.50
2023-04-18T23:22:47.084Z,29.00
2023-04-18T23:25:13.903Z,28.75
2023-04-18T23:27:40.752Z,29.00
2023-04-18T23:30:08.300Z,29.00
2023-04-18T23:32:35.147Z,28.00
2023-04-18T23:35:01.989Z,28.00
2023-04-18T23:37:28.980Z,29.00
2023-04-18T23:39:55.834Z,28.00
2023-04-18T23:42:22.714Z,28.00
2023-04-18T23:44:49.610Z,28.00
2023-04-18T23:47:16.419Z,29.00
2023-04-18T23:49:43.312Z,29.00
2023-04-18T23:52:10.318Z,30.00
2023-04-18T23:54:37.144Z,30.00
2023-04-18T23:57:04.045Z,29.00
2023-04-18T23:59:30.920Z,28.00
